Time;durP1;ratioP1;P1;durP2;ratioP2;P2;SDS_P1;SDS_P2;PMS_P1;PMS_P2;Temp;Humidity;BMP_temperature;BMP_pressure;BME280_temperature;BME280_humidity;BME280_pressure;Samples;Min_cycle;Max_cycle;Signal;HPM_P1;HPM_P2
2022/05/07 00:00:11;;;;;;;49.22;10.55;;;;;;;;;;5032285;28;20028;-68
2022/05/07 00:02:44;;;;;;;42.85;10.82;;;;;;;;;;5032487;28;20042;-68
2022/05/07 00:05:09;;;;;;;41.03;10.68;;;;;;;;;;5032752;28;20112;-68
2022/05/07 00:07:41;;;;;;;47.13;12.23;;;;;;;;;;5036041;28;20113;-68
2022/05/07 00:10:14;;;;;;;44.28;11.73;;;;;;;;;;5034671;28;20115;-68
2022/05/07 00:12:39;;;;;;;35.47;10.13;;;;;;;;;;5033791;28;20049;-68
2022/05/07 00:15:12;;;;;;;43.83;11.25;;;;;;;;;;5036002;28;20029;-68
2022/05/07 00:18:02;;;;;;;46.50;11.93;;;;;;;;;;5035856;28;20041;-68
2022/05/07 00:20:34;;;;;;;70.35;11.50;;;;;;;;;;5034593;28;20099;-68
2022/05/07 00:23:07;;;;;;;31.67;10.23;;;;;;;;;;5035628;28;20393;-68
2022/05/07 00:25:32;;;;;;;39.92;11.68;;;;;;;;;;5035913;28;20477;-68
2022/05/07 00:28:04;;;;;;;55.75;12.00;;;;;;;;;;5035867;28;20040;-67
2022/05/07 00:30:36;;;;;;;46.88;11.73;;;;;;;;;;5025222;28;20049;-68
2022/05/07 00:33:01;;;;;;;42.78;10.98;;;;;;;;;;5035531;28;20041;-68
2022/05/07 00:35:33;;;;;;;47.20;11.10;;;;;;;;;;5035622;28;20087;-68
2022/05/07 00:38:05;;;;;;;35.83;9.55;;;;;;;;;;5035598;28;20060;-68
2022/05/07 00:40:30;;;;;;;39.75;9.65;;;;;;;;;;5035463;28;20037;-68
2022/05/07 00:43:02;;;;;;;34.78;10.02;;;;;;;;;;5035385;28;20038;-68
2022/05/07 00:45:34;;;;;;;43.97;9.98;;;;;;;;;;5035389;28;20088;-68
2022/05/07 00:47:59;;;;;;;40.83;9.50;;;;;;;;;;5035073;28;20443;-68
2022/05/07 00:53:22;;;;;;;24.55;8.07;;;;;;;;;;5034949;28;20559;-68
2022/05/07 00:55:55;;;;;;;29.35;8.00;;;;;;;;;;5031537;28;20055;-68
2022/05/07 00:58:22;;;;;;;33.38;8.93;;;;;;;;;;5033441;28;20036;-68
2022/05/07 01:00:54;;;;;;;23.58;7.70;;;;;;;;;;5034801;28;20473;-68
2022/05/07 01:03:26;;;;;;;31.38;8.45;;;;;;;;;;5033228;28;20041;-68
2022/05/07 01:05:51;;;;;;;39.85;9.25;;;;;;;;;;5049378;28;20406;-68
2022/05/07 01:08:25;;;;;;;36.45;8.20;;;;;;;;;;5034503;28;20116;-68
2022/05/07 01:10:57;;;;;;;34.58;9.35;;;;;;;;;;5034049;28;20095;-68
2022/05/07 01:13:23;;;;;;;42.47;9.52;;;;;;;;;;5034671;28;20061;-68
2022/05/07 01:16:01;;;;;;;40.28;9.63;;;;;;;;;;5033221;28;20075;-68
2022/05/07 01:18:33;;;;;;;43.75;9.13;;;;;;;;;;5033342;28;21243;-68
2022/05/07 01:20:59;;;;;;;39.78;9.23;;;;;;;;;;5034849;28;20076;-68
2022/05/07 01:23:31;;;;;;;27.60;8.45;;;;;;;;;;5066723;28;20048;-68
2022/05/07 01:26:03;;;;;;;29.48;8.00;;;;;;;;;;5034560;28;20033;-68
2022/05/07 01:28:28;;;;;;;32.25;8.55;;;;;;;;;;5034488;28;20430;-68
2022/05/07 01:31:01;;;;;;;23.92;7.32;;;;;;;;;;5034361;28;20080;-68
2022/05/07 01:33:34;;;;;;;24.52;7.43;;;;;;;;;;5034467;28;20033;-68
2022/05/07 01:36:13;;;;;;;23.30;7.30;;;;;;;;;;5034506;28;20033;-68
2022/05/07 01:38:46;;;;;;;18.08;5.85;;;;;;;;;;5033947;28;20519;-68
2022/05/07 01:41:19;;;;;;;23.15;7.03;;;;;;;;;;5066487;28;20037;-68
2022/05/07 01:43:44;;;;;;;21.90;6.90;;;;;;;;;;5022024;28;20038;-68
2022/05/07 01:49:07;;;;;;;25.17;7.13;;;;;;;;;;5033689;28;20040;-68
2022/05/07 01:51:39;;;;;;;20.55;6.43;;;;;;;;;;5034219;28;20098;-68
2022/05/07 01:54:04;;;;;;;19.45;6.53;;;;;;;;;;5023397;28;20435;-68
2022/05/07 01:56:37;;;;;;;19.98;6.45;;;;;;;;;;5034117;28;20705;-68
2022/05/07 01:59:09;;;;;;;20.38;6.30;;;;;;;;;;5033734;28;20432;-68
2022/05/07 02:01:35;;;;;;;19.00;6.50;;;;;;;;;;5033622;28;20037;-68
2022/05/07 02:04:07;;;;;;;20.80;5.60;;;;;;;;;;5033694;28;20030;-68
2022/05/07 02:06:39;;;;;;;14.60;5.75;;;;;;;;;;5033520;28;20392;-68
2022/05/07 02:09:04;;;;;;;21.48;6.40;;;;;;;;;;5033057;28;20124;-68
2022/05/07 02:11:37;;;;;;;19.67;6.13;;;;;;;;;;5033455;28;20132;-68
2022/05/07 02:14:09;;;;;;;21.00;6.30;;;;;;;;;;5033731;28;20041;-68
2022/05/07 02:16:34;;;;;;;17.55;5.90;;;;;;;;;;5033665;28;20037;-68
2022/05/07 02:19:07;;;;;;;18.17;6.50;;;;;;;;;;5033631;28;20026;-68
2022/05/07 02:21:39;;;;;;;22.00;6.53;;;;;;;;;;5033795;28;20042;-68
2022/05/07 02:24:04;;;;;;;17.15;5.43;;;;;;;;;;5032568;28;20069;-68
2022/05/07 02:26:37;;;;;;;15.18;5.53;;;;;;;;;;5033201;28;20064;-68
2022/05/07 02:29:14;;;;;;;16.75;5.57;;;;;;;;;;5022770;28;20037;-68
2022/05/07 02:32:07;;;;;;;14.85;5.53;;;;;;;;;;5032455;28;20108;-68
2022/05/07 02:34:40;;;;;;;13.70;4.97;;;;;;;;;;5032846;28;20127;-68
2022/05/07 02:37:12;;;;;;;10.65;4.10;;;;;;;;;;5033448;28;20038;-68
2022/05/07 02:39:37;;;;;;;14.20;4.57;;;;;;;;;;5033465;28;20045;-68
2022/05/07 02:45:00;;;;;;;9.35;2.53;;;;;;;;;;5032819;28;20116;-68
2022/05/07 02:47:36;;;;;;;7.10;2.55;;;;;;;;;;5033354;28;20044;-68
2022/05/07 02:50:13;;;;;;;5.15;2.30;;;;;;;;;;5033059;28;20041;-68
2022/05/07 02:52:45;;;;;;;6.25;2.70;;;;;;;;;;5033317;28;20045;-68
2022/05/07 02:55:10;;;;;;;7.93;2.60;;;;;;;;;;5033160;28;20155;-68
2022/05/07 02:57:43;;;;;;;6.30;2.80;;;;;;;;;;5033286;28;20504;-68
2022/05/07 03:00:16;;;;;;;8.75;2.50;;;;;;;;;;5032978;28;20038;-68
2022/05/07 03:02:41;;;;;;;6.70;2.25;;;;;;;;;;5032884;28;20500;-68
2022/05/07 03:05:13;;;;;;;12.60;2.78;;;;;;;;;;5032901;28;20068;-68
2022/05/07 03:07:45;;;;;;;4.70;2.00;;;;;;;;;;5024326;28;20116;-68
2022/05/07 03:10:10;;;;;;;6.82;1.80;;;;;;;;;;5031865;28;20081;-68
2022/05/07 03:12:43;;;;;;;7.53;2.28;;;;;;;;;;5033008;28;20466;-68
2022/05/07 03:15:15;;;;;;;5.68;1.98;;;;;;;;;;5032926;28;20034;-68
2022/05/07 03:17:40;;;;;;;9.43;2.40;;;;;;;;;;5025300;28;20087;-68
2022/05/07 03:20:16;;;;;;;8.48;2.28;;;;;;;;;;5032992;28;20443;-68
2022/05/07 03:22:48;;;;;;;5.45;1.80;;;;;;;;;;5032502;28;20421;-68
2022/05/07 03:25:20;;;;;;;5.10;1.45;;;;;;;;;;5033061;28;20048;-68
2022/05/07 03:27:45;;;;;;;6.22;1.58;;;;;;;;;;5032857;28;20045;-68
2022/05/07 03:30:17;;;;;;;4.78;1.83;;;;;;;;;;5032770;28;20032;-68
2022/05/07 03:32:49;;;;;;;2.88;1.55;;;;;;;;;;5033030;28;20432;-68
2022/05/07 03:35:14;;;;;;;6.15;2.50;;;;;;;;;;5032784;28;20083;-68
2022/05/07 03:37:46;;;;;;;6.05;1.83;;;;;;;;;;5032427;28;20029;-68
2022/05/07 03:40:18;;;;;;;4.20;1.88;;;;;;;;;;5032875;28;20049;-67
2022/05/07 03:42:43;;;;;;;8.10;2.42;;;;;;;;;;5026799;28;20048;-68
2022/05/07 03:45:15;;;;;;;7.88;2.53;;;;;;;;;;5036351;28;20021;-68
2022/05/07 03:47:47;;;;;;;8.00;2.17;;;;;;;;;;5036257;28;20494;-68
2022/05/07 03:50:12;;;;;;;8.80;2.60;;;;;;;;;;5036260;28;20099;-68
2022/05/07 03:55:41;;;;;;;5.03;2.28;;;;;;;;;;5036025;28;20564;-68
2022/05/07 03:58:17;;;;;;;7.72;2.63;;;;;;;;;;5036084;28;20451;-68
2022/05/07 04:00:50;;;;;;;7.05;2.67;;;;;;;;;;5035992;28;20489;-68
2022/05/07 04:03:22;;;;;;;9.27;2.60;;;;;;;;;;5050861;28;20034;-68
2022/05/07 04:06:02;;;;;;;4.38;2.55;;;;;;;;;;5035975;28;20049;-68
2022/05/07 04:08:34;;;;;;;7.22;2.60;;;;;;;;;;5065083;28;20069;-68
2022/05/07 04:11:01;;;;;;;7.10;2.85;;;;;;;;;;5034191;28;20057;-68
2022/05/07 04:13:33;;;;;;;6.85;2.50;;;;;;;;;;5036150;28;20017;-68
2022/05/07 04:16:05;;;;;;;5.78;2.50;;;;;;;;;;5035747;28;20481;-68
2022/05/07 04:18:30;;;;;;;5.50;2.60;;;;;;;;;;5035971;28;20030;-68
2022/05/07 04:21:02;;;;;;;7.80;2.65;;;;;;;;;;5035916;28;20093;-68
2022/05/07 04:23:34;;;;;;;5.03;2.75;;;;;;;;;;5035902;28;20053;-68
2022/05/07 04:25:59;;;;;;;8.07;3.08;;;;;;;;;;5035842;28;20037;-68
2022/05/07 04:28:32;;;;;;;10.75;2.90;;;;;;;;;;5035832;28;20425;-68
2022/05/07 04:31:04;;;;;;;6.78;3.10;;;;;;;;;;5035683;28;20048;-68
2022/05/07 04:33:29;;;;;;;7.55;2.80;;;;;;;;;;5035718;28;20041;-68
2022/05/07 04:36:01;;;;;;;9.25;3.45;;;;;;;;;;5035696;28;20106;-68
2022/05/07 04:38:33;;;;;;;10.68;3.85;;;;;;;;;;5035431;28;20029;-68
2022/05/07 04:40:58;;;;;;;8.73;3.28;;;;;;;;;;5035830;28;20044;-68
2022/05/07 04:43:31;;;;;;;10.07;3.50;;;;;;;;;;5034309;28;20022;-68
2022/05/07 04:46:03;;;;;;;8.75;3.25;;;;;;;;;;5035453;28;20040;-68
2022/05/07 04:48:28;;;;;;;9.43;2.97;;;;;;;;;;5023540;28;20478;-67
2022/05/07 04:51:01;;;;;;;7.70;3.30;;;;;;;;;;5035163;28;20091;-68
2022/05/07 04:53:33;;;;;;;5.05;2.53;;;;;;;;;;5034872;28;20543;-68
2022/05/07 04:55:58;;;;;;;8.48;3.10;;;;;;;;;;5034943;28;21298;-68
2022/05/07 04:58:31;;;;;;;12.88;3.28;;;;;;;;;;5035142;28;20054;-68
2022/05/07 05:01:03;;;;;;;8.57;2.65;;;;;;;;;;5035193;28;20030;-68
2022/05/07 05:03:28;;;;;;;10.75;2.85;;;;;;;;;;5035085;28;20427;-68
2022/05/07 05:06:01;;;;;;;6.57;3.00;;;;;;;;;;5035082;28;20037;-68
2022/05/07 05:08:33;;;;;;;10.25;3.10;;;;;;;;;;5028130;28;20037;-68
2022/05/07 05:10:58;;;;;;;4.95;2.80;;;;;;;;;;5034036;28;20084;-68
2022/05/07 05:13:31;;;;;;;9.50;3.25;;;;;;;;;;5034744;28;20049;-68
2022/05/07 05:16:03;;;;;;;9.27;2.85;;;;;;;;;;5034932;28;20041;-68
2022/05/07 05:18:29;;;;;;;10.27;3.38;;;;;;;;;;5034728;28;20470;-68
2022/05/07 05:21:01;;;;;;;7.43;2.88;;;;;;;;;;5034832;28;20092;-68
2022/05/07 05:23:33;;;;;;;5.03;2.42;;;;;;;;;;5032727;28;20474;-68
2022/05/07 05:25:58;;;;;;;8.90;2.38;;;;;;;;;;5034655;28;20029;-68
2022/05/07 05:28:31;;;;;;;4.93;1.70;;;;;;;;;;5034576;28;20453;-68
2022/05/07 05:31:03;;;;;;;5.63;1.52;;;;;;;;;;5034486;28;20045;-68
2022/05/07 05:33:28;;;;;;;5.53;1.92;;;;;;;;;;5034724;28;20041;-68
2022/05/07 05:36:00;;;;;;;4.90;1.60;;;;;;;;;;5034409;28;20028;-68
2022/05/07 05:38:32;;;;;;;3.25;1.45;;;;;;;;;;5034526;28;20033;-68
2022/05/07 05:40:57;;;;;;;2.03;1.20;;;;;;;;;;5034247;28;20040;-68
2022/05/07 05:43:29;;;;;;;3.83;1.50;;;;;;;;;;5034293;28;20025;-68
2022/05/07 05:46:01;;;;;;;2.97;1.10;;;;;;;;;;5034157;28;20065;-68
2022/05/07 05:48:29;;;;;;;2.63;1.27;;;;;;;;;;5034264;28;20041;-68
2022/05/07 05:51:07;;;;;;;2.55;1.10;;;;;;;;;;5033942;28;20064;-68
2022/05/07 05:53:39;;;;;;;2.53;1.20;;;;;;;;;;5029533;28;20053;-68
2022/05/07 05:56:11;;;;;;;2.42;1.10;;;;;;;;;;5033836;28;20105;-68
2022/05/07 05:58:36;;;;;;;2.72;1.25;;;;;;;;;;5034194;28;20034;-68
2022/05/07 06:01:08;;;;;;;2.80;1.00;;;;;;;;;;5033659;28;20025;-68
2022/05/07 06:03:40;;;;;;;2.20;1.00;;;;;;;;;;5033335;28;20041;-68
2022/05/07 06:06:05;;;;;;;2.88;1.20;;;;;;;;;;5034011;28;20029;-69
2022/05/07 06:08:37;;;;;;;2.47;1.20;;;;;;;;;;5033773;28;20033;-68
2022/05/07 06:11:09;;;;;;;3.30;1.10;;;;;;;;;;5032720;28;20060;-69
2022/05/07 06:13:34;;;;;;;5.47;1.38;;;;;;;;;;5033732;28;20048;-69
2022/05/07 06:16:06;;;;;;;3.50;1.17;;;;;;;;;;5033348;28;20026;-68
2022/05/07 06:18:38;;;;;;;2.40;1.00;;;;;;;;;;5030939;28;20048;-69
2022/05/07 06:21:03;;;;;;;3.17;1.23;;;;;;;;;;5033795;28;20492;-69
2022/05/07 06:23:35;;;;;;;2.55;1.27;;;;;;;;;;5033689;28;20108;-69
2022/05/07 06:28:58;;;;;;;4.25;1.17;;;;;;;;;;5033346;28;20129;-69
2022/05/07 06:31:31;;;;;;;3.00;1.27;;;;;;;;;;5033436;28;20033;-69
2022/05/07 06:33:58;;;;;;;5.37;1.40;;;;;;;;;;5033613;28;20041;-69
2022/05/07 06:36:30;;;;;;;3.70;1.20;;;;;;;;;;5033338;28;20030;-69
2022/05/07 06:39:02;;;;;;;3.45;1.15;;;;;;;;;;5033506;28;20045;-69
2022/05/07 06:41:27;;;;;;;3.67;1.30;;;;;;;;;;5033186;28;20504;-69
2022/05/07 06:43:59;;;;;;;4.82;1.20;;;;;;;;;;5033344;28;20047;-69
2022/05/07 06:46:31;;;;;;;4.35;1.30;;;;;;;;;;5033294;28;20052;-69
2022/05/07 06:48:56;;;;;;;2.40;1.00;;;;;;;;;;5033311;28;20103;-69
2022/05/07 06:51:28;;;;;;;3.17;1.20;;;;;;;;;;5032633;28;20409;-69
2022/05/07 06:54:00;;;;;;;2.97;1.10;;;;;;;;;;5033405;28;20044;-69
2022/05/07 06:56:25;;;;;;;3.55;1.17;;;;;;;;;;5033196;28;20033;-69
2022/05/07 06:58:57;;;;;;;3.05;1.23;;;;;;;;;;5033009;28;20037;-69
2022/05/07 07:01:29;;;;;;;2.53;1.00;;;;;;;;;;5033221;28;20037;-69
2022/05/07 07:03:55;;;;;;;4.07;1.58;;;;;;;;;;5033048;28;20044;-69
2022/05/07 07:06:27;;;;;;;4.03;1.50;;;;;;;;;;5033182;28;20096;-69
2022/05/07 07:09:00;;;;;;;4.63;1.50;;;;;;;;;;5032867;28;20030;-69
2022/05/07 07:11:25;;;;;;;3.92;1.30;;;;;;;;;;5031997;28;20125;-69
2022/05/07 07:13:57;;;;;;;4.32;1.50;;;;;;;;;;5033261;28;20471;-69
2022/05/07 07:16:29;;;;;;;5.55;1.30;;;;;;;;;;5036711;28;20041;-67
2022/05/07 07:18:54;;;;;;;3.33;1.40;;;;;;;;;;5037124;28;20048;-67
2022/05/07 07:21:26;;;;;;;4.13;1.48;;;;;;;;;;5036973;28;20025;-67
2022/05/07 07:23:59;;;;;;;3.42;1.30;;;;;;;;;;5047836;28;20045;-67
2022/05/07 07:26:25;;;;;;;3.90;1.40;;;;;;;;;;5036833;28;20116;-67
2022/05/07 07:28:57;;;;;;;3.17;1.50;;;;;;;;;;5036831;28;20417;-67
2022/05/07 07:31:29;;;;;;;4.63;1.40;;;;;;;;;;5036944;28;20040;-67
2022/05/07 07:33:54;;;;;;;4.13;1.63;;;;;;;;;;5037060;28;20041;-67
2022/05/07 07:36:26;;;;;;;4.13;1.50;;;;;;;;;;5036364;28;20031;-67
2022/05/07 07:38:58;;;;;;;6.35;1.35;;;;;;;;;;5036719;28;20037;-67
2022/05/07 07:41:25;;;;;;;3.08;1.23;;;;;;;;;;5026653;28;20501;-67
2022/05/07 07:43:57;;;;;;;4.47;1.45;;;;;;;;;;5036584;28;20079;-67
2022/05/07 07:49:20;;;;;;;4.18;1.60;;;;;;;;;;5036109;28;20128;-67
2022/05/07 07:51:53;;;;;;;4.03;1.33;;;;;;;;;;5036664;28;20033;-67
2022/05/07 07:54:18;;;;;;;;;;;;;;;;;;5036775;28;20037;-67
2022/05/07 07:56:50;;;;;;;5.15;1.30;;;;;;;;;;5036448;28;20264;-67
2022/05/07 07:59:23;;;;;;;3.35;1.30;;;;;;;;;;5036187;28;20095;-68
2022/05/07 08:01:48;;;;;;;2.95;1.40;;;;;;;;;;5036022;28;20507;-68
2022/05/07 08:04:22;;;;;;;5.38;1.60;;;;;;;;;;5036261;28;20021;-68
2022/05/07 08:12:36;;;;;;;4.32;1.40;;;;;;;;;;5035708;28;20043;-69
2022/05/07 08:15:08;;;;;;;5.32;1.38;;;;;;;;;;5036039;28;20071;-68
2022/05/07 08:17:34;;;;;;;2.83;1.30;;;;;;;;;;5035864;28;20065;-68
2022/05/07 08:20:06;;;;;;;5.18;1.50;;;;;;;;;;5035942;28;20052;-68
2022/05/07 08:22:38;;;;;;;3.50;1.55;;;;;;;;;;5036179;28;20030;-68
2022/05/07 08:25:05;;;;;;;3.47;1.35;;;;;;;;;;5035829;28;20740;-68
2022/05/07 08:27:38;;;;;;;4.20;1.40;;;;;;;;;;5035311;28;20026;-68
2022/05/07 08:30:10;;;;;;;3.10;1.38;;;;;;;;;;5035675;28;20060;-68
2022/05/07 08:32:36;;;;;;;3.45;1.40;;;;;;;;;;5035530;28;20477;-68
2022/05/07 08:35:08;;;;;;;3.20;1.25;;;;;;;;;;5035581;28;20038;-68
2022/05/07 08:37:40;;;;;;;5.28;1.40;;;;;;;;;;5023764;28;20041;-69
2022/05/07 08:40:06;;;;;;;4.28;1.35;;;;;;;;;;5035500;28;20073;-68
2022/05/07 08:42:40;;;;;;;4.28;1.45;;;;;;;;;;5035541;28;20068;-68
2022/05/07 08:45:12;;;;;;;3.38;1.38;;;;;;;;;;5035202;28;20477;-68
2022/05/07 08:47:39;;;;;;;4.68;1.40;;;;;;;;;;5035484;28;20048;-68
2022/05/07 08:50:14;;;;;;;2.72;1.30;;;;;;;;;;5035445;28;20041;-68
2022/05/07 08:52:46;;;;;;;2.83;1.50;;;;;;;;;;5028924;28;20057;-68
2022/05/07 08:55:21;;;;;;;3.65;1.42;;;;;;;;;;5035179;28;20030;-69
2022/05/07 08:57:53;;;;;;;4.57;1.60;;;;;;;;;;5035286;28;20112;-68
2022/05/07 09:00:28;;;;;;;3.60;1.45;;;;;;;;;;5035036;28;20038;-68
2022/05/07 09:03:02;;;;;;;5.18;1.40;;;;;;;;;;5035247;28;20034;-68
2022/05/07 09:05:44;;;;;;;5.25;1.50;;;;;;;;;;5035113;28;20069;-68
2022/05/07 09:08:16;;;;;;;4.07;1.23;;;;;;;;;;5034774;28;20535;-68
2022/05/07 09:10:41;;;;;;;4.05;1.30;;;;;;;;;;5030765;28;20049;-69
2022/05/07 09:13:14;;;;;;;4.68;1.40;;;;;;;;;;5035037;28;20034;-69
2022/05/07 09:15:57;;;;;;;2.83;1.30;;;;;;;;;;5034871;28;20430;-68
2022/05/07 09:18:31;;;;;;;2.75;1.13;;;;;;;;;;5034810;28;20033;-68
2022/05/07 09:21:16;;;;;;;3.10;1.30;;;;;;;;;;5034658;28;20500;-68
2022/05/07 09:24:06;;;;;;;4.43;1.20;;;;;;;;;;5033414;28;20041;-69
2022/05/07 09:26:43;;;;;;;3.13;1.30;;;;;;;;;;5032116;28;20124;-69
2022/05/07 09:29:18;;;;;;;2.42;1.10;;;;;;;;;;5032983;28;20401;-68
2022/05/07 09:31:50;;;;;;;3.00;1.10;;;;;;;;;;5035041;28;20045;-69
2022/05/07 09:37:20;;;;;;;5.05;1.40;;;;;;;;;;5031999;28;20107;-68
2022/05/07 09:39:57;;;;;;;3.58;1.50;;;;;;;;;;5033069;28;20389;-69
2022/05/07 09:42:30;;;;;;;3.78;1.20;;;;;;;;;;5033739;28;20044;-68
2022/05/07 09:44:55;;;;;;;3.60;1.63;;;;;;;;;;5033960;28;20378;-68
2022/05/07 09:47:27;;;;;;;3.47;1.45;;;;;;;;;;5063917;28;20034;-68
2022/05/07 09:58:32;;;;;;;2.30;1.13;;;;;;;;;;5061035;28;20414;-68
2022/05/07 10:01:22;;;;;;;4.93;1.33;;;;;;;;;;5034054;28;20056;-68
2022/05/07 10:04:09;;;;;;;1.90;1.05;;;;;;;;;;5033769;28;20477;-68
2022/05/07 10:06:47;;;;;;;5.18;1.58;;;;;;;;;;5018956;28;20041;-68
2022/05/07 10:09:53;;;;;;;5.63;1.60;;;;;;;;;;5064254;28;20127;-68
2022/05/07 10:12:26;;;;;;;4.43;1.40;;;;;;;;;;5032973;28;20473;-68
2022/05/07 10:14:51;;;;;;;4.05;1.40;;;;;;;;;;5049283;28;20042;-68
2022/05/07 10:17:26;;;;;;;4.60;1.40;;;;;;;;;;5033599;28;20025;-67
2022/05/07 10:20:24;;;;;;;4.60;1.38;;;;;;;;;;5033751;28;20044;-69
2022/05/07 10:23:03;;;;;;;2.58;1.13;;;;;;;;;;5030586;28;20045;-68
2022/05/07 10:25:36;;;;;;;3.60;1.30;;;;;;;;;;5033648;28;20030;-69
2022/05/07 10:28:19;;;;;;;3.72;1.25;;;;;;;;;;5033549;28;20033;-69
2022/05/07 10:30:53;;;;;;;3.78;1.23;;;;;;;;;;5033697;28;20048;-69
2022/05/07 10:33:26;;;;;;;3.13;1.17;;;;;;;;;;5025067;28;20043;-69
2022/05/07 10:36:08;;;;;;;2.63;1.02;;;;;;;;;;5033659;28;20048;-69
2022/05/07 10:38:42;;;;;;;4.15;1.10;;;;;;;;;;5033728;28;20040;-69
2022/05/07 10:41:17;;;;;;;4.82;1.15;;;;;;;;;;5063339;28;20044;-69
2022/05/07 10:43:53;;;;;;;2.50;1.00;;;;;;;;;;5033572;28;20124;-69
2022/05/07 10:46:36;;;;;;;6.00;1.00;;;;;;;;;;5033166;28;20108;-69
2022/05/07 10:49:08;;;;;;;5.82;1.00;;;;;;;;;;5033386;28;20036;-69
2022/05/07 10:51:50;;;;;;;3.65;0.98;;;;;;;;;;5033310;28;20053;-69
2022/05/07 10:54:30;;;;;;;3.60;1.10;;;;;;;;;;5033239;28;20037;-69
2022/05/07 10:57:03;;;;;;;2.17;0.90;;;;;;;;;;5030787;28;20116;-68
2022/05/07 10:59:29;;;;;;;2.97;1.20;;;;;;;;;;5033085;28;20064;-69
2022/05/07 11:02:18;;;;;;;2.50;1.02;;;;;;;;;;5032998;28;20462;-68
2022/05/07 11:04:44;;;;;;;2.50;1.00;;;;;;;;;;5031626;28;20496;-68
2022/05/07 11:07:10;;;;;;;2.08;0.90;;;;;;;;;;5033042;28;20386;-69
2022/05/07 11:09:54;;;;;;;4.97;1.30;;;;;;;;;;5033120;28;20029;-68
2022/05/07 11:12:22;;;;;;;5.80;1.20;;;;;;;;;;5032087;28;20049;-69
2022/05/07 11:15:01;;;;;;;2.00;1.00;;;;;;;;;;5033181;28;20033;-69
2022/05/07 11:17:44;;;;;;;2.60;0.98;;;;;;;;;;5019578;28;20033;-69
2022/05/07 11:20:38;;;;;;;2.78;1.33;;;;;;;;;;5032727;28;20029;-69
2022/05/07 11:23:03;;;;;;;5.55;1.35;;;;;;;;;;5032816;28;20036;-69
2022/05/07 11:25:35;;;;;;;3.13;1.10;;;;;;;;;;5031296;28;20029;-69
2022/05/07 11:28:07;;;;;;;6.22;1.10;;;;;;;;;;5032546;28;20432;-69
2022/05/07 11:30:32;;;;;;;4.43;1.20;;;;;;;;;;5032878;28;20033;-68
2022/05/07 11:33:08;;;;;;;2.97;1.20;;;;;;;;;;5033028;28;20035;-69
2022/05/07 11:35:40;;;;;;;3.78;1.10;;;;;;;;;;5032806;28;20108;-69
2022/05/07 11:38:12;;;;;;;3.75;1.13;;;;;;;;;;5032722;28;20041;-69
2022/05/07 11:40:38;;;;;;;3.22;1.10;;;;;;;;;;5032690;28;20048;-69
2022/05/07 11:46:06;;;;;;;2.80;1.02;;;;;;;;;;5053776;28;20091;-69
2022/05/07 11:48:39;;;;;;;3.13;1.08;;;;;;;;;;5032866;28;20069;-69
2022/05/07 11:51:11;;;;;;;4.70;1.30;;;;;;;;;;5030950;28;20443;-69
2022/05/07 11:53:37;;;;;;;2.47;1.00;;;;;;;;;;5032086;28;20037;-69
2022/05/07 11:56:14;;;;;;;3.55;1.23;;;;;;;;;;5032478;28;20083;-69
2022/05/07 11:58:49;;;;;;;3.60;1.13;;;;;;;;;;5032574;28;20037;-69
2022/05/07 12:01:26;;;;;;;3.88;0.93;;;;;;;;;;5032928;28;20042;-69
2022/05/07 12:04:07;;;;;;;3.72;1.20;;;;;;;;;;5036422;28;20049;-69
2022/05/07 12:06:39;;;;;;;4.25;1.33;;;;;;;;;;5035050;28;20121;-69
2022/05/07 12:09:13;;;;;;;3.47;1.10;;;;;;;;;;5036136;28;20040;-69
2022/05/07 12:11:46;;;;;;;2.28;1.00;;;;;;;;;;5034559;28;20481;-69
2022/05/07 12:14:18;;;;;;;2.88;1.10;;;;;;;;;;5035971;28;20037;-69
2022/05/07 12:19:46;;;;;;;3.47;1.17;;;;;;;;;;5035715;28;20119;-69
2022/05/07 12:30:50;;;;;;;3.45;1.08;;;;;;;;;;5030965;28;20053;-69
2022/05/07 12:33:22;;;;;;;2.47;0.82;;;;;;;;;;5035565;28;20029;-69
2022/05/07 12:35:49;;;;;;;2.33;0.93;;;;;;;;;;5035318;28;20379;-69
2022/05/07 12:38:21;;;;;;;2.92;1.10;;;;;;;;;;5035636;28;20049;-69
2022/05/07 12:40:53;;;;;;;3.28;1.15;;;;;;;;;;5035367;28;20037;-69
2022/05/07 12:43:18;;;;;;;4.82;0.90;;;;;;;;;;5035420;28;20034;-69
2022/05/07 12:45:50;;;;;;;3.13;1.10;;;;;;;;;;5035921;28;20037;-69
2022/05/07 12:48:23;;;;;;;4.35;1.10;;;;;;;;;;5035302;28;20038;-68
2022/05/07 12:50:48;;;;;;;4.10;1.10;;;;;;;;;;5035607;28;20048;-68
2022/05/07 12:53:20;;;;;;;2.92;0.95;;;;;;;;;;5034469;28;20262;-68
2022/05/07 12:55:53;;;;;;;7.20;1.25;;;;;;;;;;5050862;28;20038;-68
2022/05/07 12:58:18;;;;;;;3.10;0.93;;;;;;;;;;5035115;28;20493;-69
2022/05/07 13:00:50;;;;;;;2.47;0.75;;;;;;;;;;5035207;28;20037;-69
2022/05/07 13:03:22;;;;;;;3.20;1.10;;;;;;;;;;5034462;28;20083;-69
2022/05/07 13:05:47;;;;;;;5.35;1.10;;;;;;;;;;5035041;28;20034;-68
2022/05/07 13:08:20;;;;;;;2.42;0.90;;;;;;;;;;5034988;28;20040;-69
2022/05/07 13:10:52;;;;;;;1.25;0.80;;;;;;;;;;5033557;28;20202;-69
2022/05/07 13:13:20;;;;;;;2.15;0.85;;;;;;;;;;5034879;28;20048;-68
2022/05/07 13:15:59;;;;;;;2.50;1.02;;;;;;;;;;5034950;28;20346;-69
2022/05/07 13:18:25;;;;;;;2.33;1.35;;;;;;;;;;5034714;28;20171;-69
2022/05/07 13:20:50;;;;;;;2.03;0.90;;;;;;;;;;5035015;28;20120;-69
2022/05/07 13:23:29;;;;;;;4.45;0.98;;;;;;;;;;5034679;28;20034;-69
2022/05/07 13:25:54;;;;;;;1.88;0.90;;;;;;;;;;5034865;28;20092;-69
2022/05/07 13:28:19;;;;;;;2.38;0.93;;;;;;;;;;5034158;28;20018;-69
2022/05/07 13:30:58;;;;;;;3.08;1.05;;;;;;;;;;5034709;28;20087;-69
2022/05/07 13:33:24;;;;;;;2.58;1.17;;;;;;;;;;5032070;28;20038;-69
2022/05/07 13:35:51;;;;;;;3.83;1.00;;;;;;;;;;5034335;28;20476;-68
2022/05/07 13:38:29;;;;;;;3.25;1.00;;;;;;;;;;5034412;28;20032;-69
2022/05/07 13:40:54;;;;;;;2.15;1.05;;;;;;;;;;5034313;28;20051;-69
2022/05/07 13:43:20;;;;;;;2.17;1.00;;;;;;;;;;5034408;28;20034;-69
2022/05/07 13:45:59;;;;;;;4.40;1.20;;;;;;;;;;5034334;28;20033;-69
2022/05/07 13:48:24;;;;;;;2.88;1.33;;;;;;;;;;5033967;28;20042;-68
2022/05/07 13:50:50;;;;;;;2.58;1.10;;;;;;;;;;5030491;28;20078;-68
2022/05/07 13:53:29;;;;;;;5.38;1.05;;;;;;;;;;5034106;28;20472;-68
2022/05/07 13:55:54;;;;;;;2.05;0.93;;;;;;;;;;5034295;28;20045;-68
2022/05/07 13:58:19;;;;;;;2.92;1.30;;;;;;;;;;5034051;28;20029;-69
2022/05/07 14:00:58;;;;;;;2.80;0.88;;;;;;;;;;5034191;28;20437;-69
2022/05/07 14:03:23;;;;;;;2.58;1.08;;;;;;;;;;5064194;28;20065;-69
2022/05/07 14:05:50;;;;;;;2.22;1.00;;;;;;;;;;5034030;28;20033;-69
2022/05/07 14:08:29;;;;;;;4.63;1.25;;;;;;;;;;5033588;28;20057;-69
2022/05/07 14:10:54;;;;;;;3.05;1.00;;;;;;;;;;5032579;28;20068;-69
2022/05/07 14:13:19;;;;;;;2.70;1.10;;;;;;;;;;5048780;28;20524;-69
2022/05/07 14:15:58;;;;;;;3.22;1.30;;;;;;;;;;5033920;28;20021;-69
2022/05/07 14:18:23;;;;;;;2.55;1.23;;;;;;;;;;5033703;28;20033;-69
2022/05/07 14:20:50;;;;;;;3.70;1.30;;;;;;;;;;5033363;28;20436;-69
2022/05/07 14:23:29;;;;;;;4.60;1.10;;;;;;;;;;5033568;28;20025;-69
2022/05/07 14:25:54;;;;;;;2.67;1.15;;;;;;;;;;5033120;28;20091;-69
2022/05/07 14:28:19;;;;;;;3.88;1.42;;;;;;;;;;5033702;28;20027;-69
2022/05/07 14:30:58;;;;;;;3.22;1.13;;;;;;;;;;5033649;28;20377;-69
2022/05/07 14:33:23;;;;;;;3.47;1.00;;;;;;;;;;5032401;28;20041;-69
2022/05/07 14:35:49;;;;;;;5.65;1.40;;;;;;;;;;5033673;28;20102;-69
2022/05/07 14:38:28;;;;;;;3.65;1.17;;;;;;;;;;5033341;28;20427;-69
2022/05/07 14:40:53;;;;;;;2.95;1.17;;;;;;;;;;5033269;28;20045;-69
2022/05/07 14:43:19;;;;;;;5.85;1.33;;;;;;;;;;5033257;28;20519;-69
2022/05/07 14:45:58;;;;;;;3.65;1.00;;;;;;;;;;5033074;28;20053;-69
2022/05/07 14:48:23;;;;;;;3.17;1.20;;;;;;;;;;5033282;28;20036;-69
2022/05/07 14:50:50;;;;;;;2.67;1.20;;;;;;;;;;5033317;28;20372;-68
2022/05/07 14:53:29;;;;;;;2.35;1.00;;;;;;;;;;5033295;28;20033;-69
2022/05/07 14:55:54;;;;;;;5.07;1.10;;;;;;;;;;5032987;28;20552;-68
2022/05/07 14:58:20;;;;;;;3.22;1.20;;;;;;;;;;5031138;28;20029;-69
2022/05/07 15:00:59;;;;;;;2.55;1.10;;;;;;;;;;5033410;28;20500;-69
2022/05/07 15:03:24;;;;;;;3.20;1.10;;;;;;;;;;5033059;28;20038;-69
2022/05/07 15:05:50;;;;;;;2.50;1.30;;;;;;;;;;5033244;28;20025;-69
2022/05/07 15:11:15;;;;;;;2.58;1.20;;;;;;;;;;5029256;28;20111;-69
2022/05/07 15:13:55;;;;;;;3.60;1.20;;;;;;;;;;5033223;28;20105;-69
2022/05/07 15:16:21;;;;;;;4.38;1.35;;;;;;;;;;5033149;28;20041;-68
2022/05/07 15:18:47;;;;;;;3.58;0.98;;;;;;;;;;5032736;28;20033;-69
2022/05/07 15:21:26;;;;;;;3.25;1.30;;;;;;;;;;5032982;28;20040;-69
2022/05/07 15:23:52;;;;;;;3.47;1.10;;;;;;;;;;5033172;28;20120;-68
2022/05/07 15:26:19;;;;;;;4.35;1.30;;;;;;;;;;5032607;28;20524;-69
2022/05/07 15:28:58;;;;;;;2.95;1.40;;;;;;;;;;5033186;28;20060;-68
2022/05/07 15:31:23;;;;;;;3.30;1.30;;;;;;;;;;5032842;28;20029;-68
2022/05/07 15:36:49;;;;;;;3.40;1.25;;;;;;;;;;5033294;28;20095;-69
2022/05/07 15:39:15;;;;;;;2.70;1.13;;;;;;;;;;5036750;28;20037;-68
2022/05/07 15:41:54;;;;;;;5.88;1.15;;;;;;;;;;5036822;28;20385;-68
2022/05/07 15:44:20;;;;;;;2.88;1.23;;;;;;;;;;5030173;28;20385;-68
2022/05/07 15:46:46;;;;;;;2.60;1.15;;;;;;;;;;5036289;28;20079;-68
2022/05/07 15:49:25;;;;;;;3.10;1.23;;;;;;;;;;5036587;28;20026;-68
2022/05/07 15:51:51;;;;;;;3.55;1.20;;;;;;;;;;5036065;28;20163;-69
2022/05/07 15:54:17;;;;;;;5.20;1.55;;;;;;;;;;5036551;28;20100;-69
2022/05/07 15:56:56;;;;;;;2.88;1.33;;;;;;;;;;5036739;28;20034;-68
2022/05/07 15:59:21;;;;;;;2.72;1.15;;;;;;;;;;5036170;28;20048;-69